Time;durP1;ratioP1;P1;durP2;ratioP2;P2;SDS_P1;SDS_P2;PMS_P1;PMS_P2;Temp;Humidity;BMP_temperature;BMP_pressure;BME280_temperature;BME280_humidity;BME280_pressure;Samples;Min_cycle;Max_cycle;Signal;HPM_P1;HPM_P2
2023/06/20 00:01:02;;;;;;;9.63;7.57;;;17.10;99.90;;;;;;5051865;28;20432;-82
2023/06/20 00:03:27;;;;;;;10.48;8.18;;;17.10;99.90;;;;;;5050558;28;20155;-82
2023/06/20 00:05:53;;;;;;;11.98;8.32;;;17.10;99.90;;;;;;5053879;28;20037;-82
2023/06/20 00:08:18;;;;;;;10.32;7.88;;;17.10;99.90;;;;;;5050100;28;20045;-82
2023/06/20 00:10:44;;;;;;;9.90;8.00;;;17.10;99.90;;;;;;5049751;28;20049;-83
2023/06/20 00:13:09;;;;;;;9.13;8.25;;;17.10;99.90;;;;;;5052659;28;20033;-83
2023/06/20 00:15:35;;;;;;;12.18;8.48;;;17.10;99.90;;;;;;5047622;28;20045;-83
2023/06/20 00:18:00;;;;;;;9.30;8.07;;;17.10;99.90;;;;;;5053480;28;20043;-83
2023/06/20 00:20:27;;;;;;;9.85;7.40;;;17.10;99.90;;;;;;5054865;28;20455;-83
2023/06/20 00:22:54;;;;;;;10.50;8.93;;;17.00;99.90;;;;;;5058844;28;20045;-82
2023/06/20 00:25:20;;;;;;;9.77;8.27;;;17.00;99.90;;;;;;5059548;28;20447;-83
2023/06/20 00:27:46;;;;;;;10.68;8.48;;;17.00;99.90;;;;;;5061850;28;20075;-83
2023/06/20 00:30:12;;;;;;;10.55;8.00;;;17.00;99.90;;;;;;5059507;28;20045;-83
2023/06/20 00:32:37;;;;;;;10.40;8.70;;;17.00;99.90;;;;;;5054295;28;20033;-83
2023/06/20 00:35:03;;;;;;;8.82;7.75;;;16.90;99.90;;;;;;5059367;28;20045;-83
2023/06/20 00:37:29;;;;;;;10.02;8.60;;;16.90;99.90;;;;;;5060250;28;20051;-82
2023/06/20 00:39:54;;;;;;;9.25;7.72;;;16.90;99.90;;;;;;5060234;28;20047;-82
2023/06/20 00:42:23;;;;;;;10.45;7.45;;;16.90;99.90;;;;;;5058268;28;20033;-83
2023/06/20 00:44:49;;;;;;;15.18;8.30;;;16.90;99.90;;;;;;5059919;28;20548;-82
2023/06/20 00:47:16;;;;;;;9.93;8.52;;;16.90;99.90;;;;;;5059525;28;20108;-82
2023/06/20 00:49:44;;;;;;;10.43;7.63;;;16.90;99.90;;;;;;5060636;28;20037;-82
2023/06/20 00:52:09;;;;;;;8.95;7.15;;;16.90;99.90;;;;;;5055743;28;20045;-82
2023/06/20 00:54:35;;;;;;;7.53;6.70;;;17.00;99.90;;;;;;5057102;28;20047;-83
2023/06/20 00:57:01;;;;;;;9.65;6.85;;;17.00;99.90;;;;;;5059992;28;20040;-83
2023/06/20 00:59:27;;;;;;;6.53;5.85;;;17.00;99.90;;;;;;5041550;28;20053;-83
2023/06/20 01:01:53;;;;;;;10.25;6.60;;;17.10;99.90;;;;;;5059344;28;20370;-83
2023/06/20 01:04:20;;;;;;;7.53;6.20;;;17.10;99.90;;;;;;5057000;28;20122;-83
2023/06/20 01:07:09;;;;;;;9.90;6.63;;;17.10;99.90;;;;;;5060412;28;20033;-83
2023/06/20 01:09:48;;;;;;;7.25;5.78;;;17.10;99.90;;;;;;5057828;28;20033;-82
2023/06/20 01:12:21;;;;;;;7.57;6.00;;;17.20;99.90;;;;;;5058535;28;20048;-83
2023/06/20 01:15:09;;;;;;;10.68;6.32;;;17.10;99.90;;;;;;5060138;28;20087;-83
2023/06/20 01:18:25;;;;;;;7.85;5.30;;;17.20;99.90;;;;;;5078768;28;20372;-82
2023/06/20 01:20:56;;;;;;;6.97;6.05;;;17.20;99.90;;;;;;5062018;28;20494;-82
2023/06/20 01:23:32;;;;;;;7.95;5.75;;;17.10;99.90;;;;;;5057395;28;20113;-82
2023/06/20 01:26:17;;;;;;;8.48;5.90;;;17.10;99.90;;;;;;5063011;28;20049;-82
2023/06/20 01:28:51;;;;;;;8.87;5.90;;;17.10;99.90;;;;;;5057775;28;20550;-82
2023/06/20 01:31:24;;;;;;;7.55;5.50;;;17.10;99.90;;;;;;5052204;28;20041;-83
2023/06/20 01:33:51;;;;;;;11.32;6.07;;;17.10;99.90;;;;;;5052010;28;20033;-82
2023/06/20 01:36:20;;;;;;;8.40;5.75;;;17.10;99.90;;;;;;5053696;28;20042;-83
2023/06/20 01:38:49;;;;;;;7.32;6.07;;;17.10;99.90;;;;;;5052866;28;20041;-83
2023/06/20 01:41:20;;;;;;;7.40;5.60;;;17.10;99.90;;;;;;5052024;28;20041;-83
2023/06/20 01:43:48;;;;;;;8.43;6.72;;;17.00;99.90;;;;;;5055358;28;20102;-82
2023/06/20 01:46:15;;;;;;;7.55;6.80;;;17.10;99.90;;;;;;5050321;28;20048;-82
2023/06/20 01:48:42;;;;;;;7.88;6.97;;;17.20;99.90;;;;;;5053191;28;20074;-83
2023/06/20 01:51:07;;;;;;;10.07;7.30;;;17.20;99.90;;;;;;5052643;28;20140;-83
2023/06/20 01:53:35;;;;;;;10.68;6.97;;;17.20;99.90;;;;;;5040986;28;20049;-83
2023/06/20 01:56:03;;;;;;;8.57;7.22;;;17.20;99.90;;;;;;5054067;28;20045;-83
2023/06/20 01:58:31;;;;;;;8.80;7.90;;;17.30;99.90;;;;;;5068231;28;20475;-82
2023/06/20 02:00:57;;;;;;;10.07;7.65;;;17.30;99.90;;;;;;5050954;28;20045;-82
2023/06/20 02:03:27;;;;;;;10.90;8.20;;;17.30;99.90;;;;;;5039885;28;20079;-82
2023/06/20 02:05:55;;;;;;;12.52;8.77;;;17.30;99.90;;;;;;5047470;28;20041;-82
2023/06/20 02:08:23;;;;;;;10.85;8.60;;;17.30;99.90;;;;;;5049089;28;20040;-82
2023/06/20 02:10:50;;;;;;;9.95;7.97;;;17.40;99.90;;;;;;5049865;28;20046;-82
2023/06/20 02:13:15;;;;;;;12.23;8.55;;;17.40;99.90;;;;;;5035403;28;20048;-83
2023/06/20 02:15:42;;;;;;;10.98;9.25;;;17.40;99.90;;;;;;5054651;28;20041;-83
2023/06/20 02:18:08;;;;;;;12.27;8.75;;;17.50;99.90;;;;;;5051318;28;20494;-82
2023/06/20 02:20:34;;;;;;;10.13;9.15;;;17.40;99.90;;;;;;5035966;28;20045;-82
2023/06/20 02:23:02;;;;;;;10.73;9.20;;;17.50;99.90;;;;;;5051153;28;20033;-82
2023/06/20 02:25:33;;;;;;;12.77;10.02;;;17.50;99.90;;;;;;5052670;28;20049;-82
2023/06/20 02:27:59;;;;;;;9.80;8.85;;;17.50;99.90;;;;;;5037679;28;20094;-82
2023/06/20 02:30:29;;;;;;;12.52;9.27;;;17.50;99.90;;;;;;5049959;28;20149;-82
2023/06/20 02:32:57;;;;;;;12.43;10.90;;;17.60;99.90;;;;;;5048621;28;20060;-82
2023/06/20 02:35:24;;;;;;;17.17;10.25;;;17.50;99.90;;;;;;5053842;28;20033;-83
2023/06/20 02:37:56;;;;;;;12.75;9.60;;;17.50;99.90;;;;;;5054216;28;20041;-82
2023/06/20 02:40:23;;;;;;;11.05;9.45;;;17.50;99.90;;;;;;5055162;28;20102;-82
2023/06/20 02:42:49;;;;;;;10.85;9.75;;;17.50;99.90;;;;;;5050490;28;20071;-82
2023/06/20 02:45:14;;;;;;;11.15;10.00;;;17.40;99.90;;;;;;5056360;28;20045;-82
2023/06/20 02:48:15;;;;;;;10.65;9.45;;;17.40;99.90;;;;;;5054422;28;20047;-82
2023/06/20 02:50:49;;;;;;;16.95;9.88;;;17.40;99.90;;;;;;5057930;28;20190;-82
2023/06/20 02:53:48;;;;;;;10.63;9.63;;;17.40;99.90;;;;;;5055353;28;20041;-82
2023/06/20 02:56:15;;;;;;;15.48;11.80;;;17.40;99.90;;;;;;5036295;28;20044;-82
2023/06/20 02:58:46;;;;;;;16.98;11.73;;;17.40;99.90;;;;;;5051849;28;20052;-82
2023/06/20 03:01:17;;;;;;;13.63;11.25;;;17.40;99.90;;;;;;5057171;28;20434;-83
2023/06/20 03:03:47;;;;;;;12.25;10.52;;;17.30;99.90;;;;;;5056173;28;20395;-82
2023/06/20 03:06:15;;;;;;;12.98;11.68;;;17.30;99.90;;;;;;5054664;28;20044;-82
2023/06/20 03:08:43;;;;;;;14.57;11.73;;;17.30;99.90;;;;;;5053399;28;20518;-82
2023/06/20 03:11:09;;;;;;;13.40;11.70;;;17.30;99.90;;;;;;5042477;28;20045;-82
2023/06/20 03:13:34;;;;;;;16.98;12.20;;;17.30;99.90;;;;;;5057817;28;20047;-82
2023/06/20 03:16:00;;;;;;;18.23;11.70;;;17.20;99.90;;;;;;5052870;28;20466;-83
2023/06/20 03:18:29;;;;;;;15.52;12.45;;;17.20;99.90;;;;;;5054978;28;20057;-82
2023/06/20 03:20:55;;;;;;;18.85;12.25;;;17.20;99.90;;;;;;5049421;28;20046;-82
2023/06/20 03:23:20;;;;;;;18.40;11.95;;;17.20;99.90;;;;;;5052230;28;20407;-82
2023/06/20 03:25:46;;;;;;;16.58;13.00;;;17.30;99.90;;;;;;5052104;28;20037;-82
2023/06/20 03:28:11;;;;;;;15.85;13.50;;;17.20;99.90;;;;;;5056298;28;20048;-83
2023/06/20 03:30:37;;;;;;;14.90;12.25;;;17.20;99.90;;;;;;5051716;28;20061;-82
2023/06/20 03:33:03;;;;;;;15.15;12.70;;;17.20;99.90;;;;;;5054940;28;20044;-82
2023/06/20 03:35:28;;;;;;;14.80;12.98;;;17.20;99.90;;;;;;5052055;28;20045;-82
2023/06/20 03:37:54;;;;;;;17.90;12.82;;;17.20;99.90;;;;;;5053353;28;20044;-82
2023/06/20 03:40:20;;;;;;;20.75;13.90;;;17.20;99.90;;;;;;5052155;28;20037;-82
2023/06/20 03:42:45;;;;;;;13.45;12.05;;;17.20;99.90;;;;;;5050330;28;20065;-82
2023/06/20 03:45:11;;;;;;;16.05;13.07;;;17.20;99.90;;;;;;5057510;28;20048;-82
2023/06/20 03:47:37;;;;;;;15.13;12.70;;;17.20;99.90;;;;;;5035312;28;20040;-82
2023/06/20 03:50:02;;;;;;;15.13;12.70;;;17.20;99.90;;;;;;5053437;28;20032;-82
2023/06/20 03:52:28;;;;;;;15.07;12.95;;;17.20;99.90;;;;;;5050130;28;20041;-81
2023/06/20 03:54:53;;;;;;;18.38;12.95;;;17.20;99.90;;;;;;5051157;28;20041;-82
2023/06/20 03:57:19;;;;;;;16.58;12.77;;;17.20;99.90;;;;;;5053081;28;20450;-82
2023/06/20 03:59:45;;;;;;;17.88;13.45;;;17.20;99.90;;;;;;5051272;28;20041;-82
2023/06/20 04:02:10;;;;;;;13.35;11.95;;;17.20;99.90;;;;;;5049211;28;20067;-83
2023/06/20 04:04:37;;;;;;;16.25;13.02;;;17.20;99.90;;;;;;5053646;28;20037;-82
2023/06/20 04:07:02;;;;;;;13.88;12.43;;;17.20;99.90;;;;;;5035956;28;20040;-82
2023/06/20 04:09:28;;;;;;;15.70;12.40;;;17.20;99.90;;;;;;5053873;28;20045;-82
2023/06/20 04:11:54;;;;;;;13.00;11.60;;;17.20;99.90;;;;;;5048149;28;20045;-82
2023/06/20 04:14:20;;;;;;;15.40;12.55;;;17.20;99.90;;;;;;5052980;28;20228;-82
2023/06/20 04:16:47;;;;;;;12.77;11.45;;;17.30;99.90;;;;;;5048775;28;20482;-82
2023/06/20 04:19:14;;;;;;;12.60;11.30;;;17.20;99.90;;;;;;5046141;28;20675;-81
2023/06/20 04:21:39;;;;;;;13.48;12.07;;;17.30;99.90;;;;;;5046757;28;20091;-82
2023/06/20 04:24:05;;;;;;;15.43;11.80;;;17.30;99.90;;;;;;5048167;28;20049;-81
2023/06/20 04:26:31;;;;;;;15.38;11.70;;;17.30;99.90;;;;;;5046423;28;20047;-81
2023/06/20 04:28:57;;;;;;;13.15;11.05;;;17.30;99.90;;;;;;5033714;28;20046;-82
2023/06/20 04:31:22;;;;;;;14.00;10.07;;;17.40;99.90;;;;;;5030643;28;20032;-82
2023/06/20 04:33:48;;;;;;;13.60;10.48;;;17.40;99.90;;;;;;5047286;28;20068;-82
2023/06/20 04:36:14;;;;;;;13.18;10.73;;;17.40;99.90;;;;;;5048847;28;20253;-81
2023/06/20 04:38:40;;;;;;;12.10;10.73;;;17.40;99.90;;;;;;5033007;28;20033;-80
2023/06/20 04:41:07;;;;;;;13.95;10.15;;;17.50;99.90;;;;;;5051327;28;20037;-81
2023/06/20 04:43:32;;;;;;;13.60;10.23;;;17.60;99.90;;;;;;5035447;28;20061;-81
2023/06/20 04:45:58;;;;;;;11.25;10.05;;;17.60;99.90;;;;;;5045176;28;20068;-81
2023/06/20 04:48:35;;;;;;;14.13;9.57;;;17.60;99.90;;;;;;5047751;28;20498;-80
2023/06/20 04:51:02;;;;;;;10.82;9.73;;;17.70;99.90;;;;;;5045053;28;20092;-80
2023/06/20 04:53:27;;;;;;;15.05;9.95;;;17.70;99.90;;;;;;5047284;28;20075;-80
2023/06/20 04:55:53;;;;;;;13.13;9.52;;;17.90;99.90;;;;;;5044961;28;20045;-80
2023/06/20 04:58:19;;;;;;;16.38;10.80;;;17.90;99.90;;;;;;5050797;28;20124;-81
2023/06/20 05:00:45;;;;;;;14.23;10.93;;;17.80;99.90;;;;;;5047556;28;20133;-80
2023/06/20 05:03:10;;;;;;;12.82;10.68;;;17.90;99.90;;;;;;5046827;28;20168;-82
2023/06/20 05:05:36;;;;;;;13.10;11.80;;;17.90;99.90;;;;;;5051549;28;20059;-82
2023/06/20 05:08:02;;;;;;;11.52;9.57;;;17.90;99.90;;;;;;5058363;28;20044;-80
2023/06/20 05:10:27;;;;;;;11.73;10.52;;;18.00;99.90;;;;;;5055710;28;20052;-82
2023/06/20 05:12:53;;;;;;;12.02;10.52;;;17.90;99.90;;;;;;5041803;28;20044;-81
2023/06/20 05:15:25;;;;;;;11.20;10.20;;;17.90;99.90;;;;;;5065908;28;20468;-82
2023/06/20 05:17:52;;;;;;;12.60;10.05;;;18.00;99.90;;;;;;5060105;28;20052;-82
2023/06/20 05:20:18;;;;;;;15.27;10.90;;;18.00;99.90;;;;;;5057403;28;20055;-82
2023/06/20 05:22:43;;;;;;;11.90;10.85;;;18.10;99.90;;;;;;5060371;28;20040;-83
2023/06/20 05:25:09;;;;;;;12.32;11.15;;;18.10;99.90;;;;;;5061099;28;20033;-81
2023/06/20 05:27:34;;;;;;;13.30;10.63;;;18.10;99.90;;;;;;5060289;28;20048;-83
2023/06/20 05:30:00;;;;;;;11.40;10.10;;;18.10;99.90;;;;;;5061962;28;20032;-81
2023/06/20 05:32:26;;;;;;;12.23;9.43;;;18.20;99.90;;;;;;5061310;28;20104;-82
2023/06/20 05:34:53;;;;;;;12.18;10.45;;;18.30;99.90;;;;;;5063584;28;20045;-82
2023/06/20 05:37:18;;;;;;;16.55;10.98;;;18.30;99.90;;;;;;5054889;28;20949;-81
2023/06/20 05:39:44;;;;;;;11.98;10.77;;;18.40;99.90;;;;;;5052139;28;20045;-81
2023/06/20 05:42:10;;;;;;;11.63;10.27;;;18.40;99.90;;;;;;5051779;28;20041;-80
2023/06/20 05:44:36;;;;;;;11.77;10.57;;;18.50;99.90;;;;;;5054062;28;20037;-80
2023/06/20 05:47:03;;;;;;;13.82;10.35;;;18.50;99.90;;;;;;5056107;28;20067;-79
2023/06/20 05:49:28;;;;;;;11.20;10.10;;;18.50;99.90;;;;;;5055263;28;20037;-81
2023/06/20 05:51:54;;;;;;;10.35;9.35;;;18.60;99.90;;;;;;5038190;28;20105;-81
2023/06/20 05:54:22;;;;;;;10.75;9.68;;;18.50;99.90;;;;;;5051850;28;20134;-80
2023/06/20 05:56:48;;;;;;;12.30;10.05;;;18.60;99.90;;;;;;5051290;28;20491;-79
2023/06/20 05:59:14;;;;;;;10.57;9.52;;;18.60;99.90;;;;;;5050903;28;20049;-81
2023/06/20 06:01:40;;;;;;;11.52;10.43;;;18.70;99.90;;;;;;5034317;28;20041;-79
2023/06/20 06:04:06;;;;;;;11.98;10.05;;;18.70;99.90;;;;;;5049412;28;20045;-80
2023/06/20 06:06:32;;;;;;;12.10;10.13;;;18.70;99.90;;;;;;5056325;28;20100;-80
2023/06/20 06:08:57;;;;;;;10.60;9.50;;;18.80;99.90;;;;;;5055029;28;20088;-81
2023/06/20 06:11:23;;;;;;;10.48;9.38;;;18.90;99.90;;;;;;5054224;28;20274;-81
2023/06/20 06:13:49;;;;;;;11.18;9.43;;;19.00;99.90;;;;;;5051581;28;20029;-81
2023/06/20 06:16:15;;;;;;;10.50;9.43;;;19.00;99.90;;;;;;5051059;28;20094;-80
2023/06/20 06:18:40;;;;;;;9.43;8.52;;;19.10;99.90;;;;;;5049226;28;20129;-81
2023/06/20 06:21:07;;;;;;;9.63;8.63;;;19.40;99.90;;;;;;5052193;28;20116;-80
2023/06/20 06:23:32;;;;;;;10.82;9.70;;;19.50;99.90;;;;;;5050618;28;20072;-80
2023/06/20 06:25:58;;;;;;;11.73;9.68;;;19.80;99.90;;;;;;5048379;28;20455;-82
2023/06/20 06:28:24;;;;;;;10.50;9.25;;;20.00;99.90;;;;;;5035357;28;20032;-81
2023/06/20 06:30:50;;;;;;;13.65;9.50;;;20.20;99.90;;;;;;5046777;28;20033;-81
2023/06/20 06:33:16;;;;;;;10.00;9.05;;;20.10;99.90;;;;;;5047636;28;20041;-80
2023/06/20 06:35:41;;;;;;;11.15;10.05;;;20.10;99.90;;;;;;5033520;28;20568;-82
2023/06/20 06:38:07;;;;;;;13.60;9.65;;;20.10;99.90;;;;;;5029330;28;20036;-80
2023/06/20 06:40:33;;;;;;;16.77;9.93;;;20.20;99.90;;;;;;5049998;28;20488;-83
2023/06/20 06:42:59;;;;;;;15.00;9.65;;;20.20;99.90;;;;;;5047613;28;20114;-80
2023/06/20 06:45:25;;;;;;;10.48;9.45;;;20.30;99.90;;;;;;5040909;28;20044;-81
2023/06/20 06:47:50;;;;;;;13.57;11.38;;;20.40;99.90;;;;;;5042888;28;20073;-79
2023/06/20 06:50:16;;;;;;;11.15;10.00;;;20.40;99.90;;;;;;5032933;28;20056;-80
2023/06/20 06:52:42;;;;;;;11.68;10.52;;;20.50;99.90;;;;;;5047038;28;20063;-81
2023/06/20 06:55:07;;;;;;;11.82;10.23;;;20.50;99.90;;;;;;5051545;28;20040;-81
2023/06/20 06:57:33;;;;;;;13.55;10.40;;;20.50;99.90;;;;;;5053425;28;20064;-82
2023/06/20 06:59:59;;;;;;;12.65;10.20;;;20.60;99.90;;;;;;5051692;28;20053;-81
2023/06/20 07:02:26;;;;;;;10.93;9.82;;;20.70;99.90;;;;;;5048799;28;20044;-81
2023/06/20 07:04:52;;;;;;;10.48;9.57;;;20.60;99.90;;;;;;5050315;28;20060;-80
2023/06/20 07:07:18;;;;;;;14.50;10.85;;;20.70;99.90;;;;;;5050542;28;20044;-81
2023/06/20 07:09:43;;;;;;;16.40;9.75;;;20.70;99.90;;;;;;5047323;28;20040;-81
2023/06/20 07:12:09;;;;;;;11.48;10.30;;;20.80;99.90;;;;;;5048500;28;20037;-81
2023/06/20 07:14:35;;;;;;;12.00;10.88;;;20.90;99.90;;;;;;5048021;28;20047;-80
2023/06/20 07:17:00;;;;;;;14.07;10.32;;;20.80;99.90;;;;;;5046940;28;20038;-81
2023/06/20 07:19:26;;;;;;;13.40;9.93;;;20.80;99.90;;;;;;5044697;28;20053;-81
2023/06/20 07:21:58;;;;;;;11.13;9.18;;;20.80;99.90;;;;;;5048297;28;20047;-80
2023/06/20 07:24:28;;;;;;;12.10;10.85;;;20.90;99.90;;;;;;5047139;28;20075;-81
2023/06/20 07:27:00;;;;;;;12.43;9.50;;;20.90;99.90;;;;;;5024387;28;20110;-81
2023/06/20 07:34:01;;;;;;;12.40;10.57;;;21.00;99.90;;;;;;5016114;28;20068;-81
2023/06/20 07:37:05;;;;;;;11.52;8.82;;;21.00;99.90;;;;;;5039459;28;20406;-81
2023/06/20 07:39:31;;;;;;;12.57;9.43;;;21.20;99.90;;;;;;5044925;28;20033;-81
2023/06/20 07:41:56;;;;;;;10.50;9.45;;;21.30;99.90;;;;;;5044946;28;20045;-80
2023/06/20 07:44:22;;;;;;;11.43;9.88;;;21.40;99.90;;;;;;5044820;28;20045;-81
2023/06/20 07:46:47;;;;;;;10.75;9.75;;;21.30;99.90;;;;;;5042131;28;20044;-81
2023/06/20 07:49:13;;;;;;;10.55;9.55;;;21.20;99.90;;;;;;5043173;28;20040;-81
2023/06/20 07:51:40;;;;;;;9.90;9.10;;;21.30;99.90;;;;;;5041250;28;20059;-81
2023/06/20 07:54:06;;;;;;;10.55;9.48;;;21.30;99.90;;;;;;5039765;28;20064;-82
2023/06/20 07:56:32;;;;;;;13.30;10.20;;;21.20;99.90;;;;;;5041890;28;20041;-81
2023/06/20 07:58:57;;;;;;;11.00;9.65;;;21.10;99.90;;;;;;5040725;28;20060;-81
2023/06/20 08:01:23;;;;;;;11.43;9.85;;;21.10;99.90;;;;;;5040569;28;20113;-81
2023/06/20 08:03:49;;;;;;;10.68;9.68;;;21.10;99.90;;;;;;5040245;28;20037;-81
2023/06/20 08:06:14;;;;;;;10.55;9.52;;;21.10;99.90;;;;;;5038964;28;20055;-81
2023/06/20 08:08:40;;;;;;;11.38;10.20;;;21.10;99.90;;;;;;5037477;28;20045;-81
2023/06/20 08:11:05;;;;;;;11.07;10.00;;;21.10;99.90;;;;;;5041144;28;20470;-81
2023/06/20 08:13:31;;;;;;;13.30;10.45;;;21.20;99.90;;;;;;5041339;28;20040;-80
2023/06/20 08:15:57;;;;;;;14.55;10.38;;;21.20;99.90;;;;;;5041224;28;20038;-80
2023/06/20 08:18:23;;;;;;;12.60;11.30;;;21.20;99.90;;;;;;5040082;28;20051;-81
2023/06/20 08:20:49;;;;;;;11.98;10.80;;;21.20;99.90;;;;;;5041055;28;20049;-81
2023/06/20 08:23:22;;;;;;;12.77;10.70;;;21.20;99.90;;;;;;5038510;28;20040;-81
2023/06/20 08:25:47;;;;;;;14.13;10.85;;;21.20;99.90;;;;;;5041026;28;20054;-81
2023/06/20 08:28:13;;;;;;;12.13;11.02;;;21.20;99.90;;;;;;5043004;28;20403;-81
2023/06/20 08:30:39;;;;;;;12.27;11.18;;;21.20;99.90;;;;;;5037476;28;20041;-80
2023/06/20 08:33:04;;;;;;;12.82;11.27;;;21.20;99.90;;;;;;5036564;28;20052;-80
2023/06/20 08:35:30;;;;;;;14.43;10.10;;;21.20;99.90;;;;;;5042133;28;20045;-81
2023/06/20 08:37:55;;;;;;;12.70;11.43;;;21.30;99.90;;;;;;5039744;28;20036;-81
2023/06/20 08:40:21;;;;;;;12.27;10.70;;;21.30;99.90;;;;;;5043745;28;20072;-81
2023/06/20 08:42:47;;;;;;;12.40;10.50;;;21.20;99.90;;;;;;5029625;28;20040;-81
2023/06/20 08:45:16;;;;;;;10.55;9.55;;;21.30;99.90;;;;;;5044250;28;20048;-80
2023/06/20 08:47:41;;;;;;;11.18;9.90;;;21.40;99.90;;;;;;5041958;28;20068;-81
2023/06/20 08:50:08;;;;;;;12.95;10.50;;;21.50;99.90;;;;;;5042480;28;20497;-81
2023/06/20 08:52:44;;;;;;;10.50;9.45;;;21.60;99.90;;;;;;5042775;28;20044;-81
2023/06/20 08:55:12;;;;;;;11.68;9.23;;;21.70;99.90;;;;;;5048169;28;20029;-82
2023/06/20 08:57:37;;;;;;;11.63;10.52;;;21.80;99.90;;;;;;5045440;28;20047;-81
2023/06/20 09:00:05;;;;;;;12.18;10.88;;;22.10;99.90;;;;;;5049504;28;20040;-81
2023/06/20 09:02:31;;;;;;;11.63;10.40;;;22.30;99.90;;;;;;5042109;28;20605;-80
2023/06/20 09:05:04;;;;;;;11.40;8.80;;;22.30;99.90;;;;;;5041868;28;20095;-81
2023/06/20 09:07:37;;;;;;;10.75;9.63;;;22.40;99.90;;;;;;5040953;28;20045;-80
2023/06/20 09:10:04;;;;;;;11.35;10.40;;;22.80;99.90;;;;;;5042147;28;20033;-79
2023/06/20 09:12:50;;;;;;;13.23;9.50;;;23.10;99.90;;;;;;5046573;28;20083;-81
2023/06/20 09:15:20;;;;;;;10.68;9.57;;;23.30;99.90;;;;;;5048304;28;20043;-81
2023/06/20 09:17:50;;;;;;;10.18;8.95;;;23.40;99.90;;;;;;5043432;28;20114;-80
2023/06/20 09:20:15;;;;;;;9.93;8.77;;;23.70;99.90;;;;;;5044984;28;20045;-81
2023/06/20 09:22:42;;;;;;;11.60;9.15;;;23.70;99.90;;;;;;5041208;28;20037;-81
2023/06/20 09:25:12;;;;;;;9.88;9.07;;;23.80;99.90;;;;;;5044599;28;20516;-81
2023/06/20 09:27:41;;;;;;;8.30;7.50;;;24.10;99.90;;;;;;5044073;28;20045;-80
2023/06/20 09:30:08;;;;;;;10.52;8.02;;;24.30;99.90;;;;;;5041977;28;20041;-81
2023/06/20 09:32:36;;;;;;;9.60;7.40;;;24.60;99.90;;;;;;5041173;28;20037;-81
2023/06/20 09:35:04;;;;;;;12.57;7.55;;;25.00;99.90;;;;;;5042495;28;20033;-81
2023/06/20 09:37:40;;;;;;;7.85;7.20;;;25.30;99.90;;;;;;5040588;28;20051;-81
2023/06/20 09:40:11;;;;;;;7.78;6.88;;;25.60;99.90;;;;;;5040471;28;20044;-81
2023/06/20 09:42:38;;;;;;;8.35;7.20;;;25.90;99.90;;;;;;5041667;28;20391;-81
2023/06/20 09:45:04;;;;;;;7.57;6.80;;;26.10;99.90;;;;;;5039857;28;20044;-81
2023/06/20 09:47:30;;;;;;;8.38;6.80;;;26.10;99.90;;;;;;5043232;28;20552;-81
2023/06/20 09:49:58;;;;;;;9.43;6.75;;;25.90;99.90;;;;;;5041832;28;20045;-81
2023/06/20 09:52:33;;;;;;;7.57;6.22;;;26.10;99.90;;;;;;5043056;28;21118;-81
2023/06/20 09:55:03;;;;;;;7.13;5.53;;;26.20;99.90;;;;;;5030764;28;20044;-81
2023/06/20 09:57:39;;;;;;;7.60;5.18;;;26.40;99.90;;;;;;5040482;28;20126;-81
2023/06/20 10:00:14;;;;;;;6.18;5.60;;;26.40;99.90;;;;;;5046071;28;20040;-81
2023/06/20 10:02:43;;;;;;;7.45;5.28;;;26.50;99.90;;;;;;5045775;28;20144;-82
2023/06/20 10:05:09;;;;;;;6.03;5.63;;;26.70;99.90;;;;;;5041137;28;20060;-81
2023/06/20 10:07:37;;;;;;;7.28;6.53;;;26.80;99.90;;;;;;5045764;28;20067;-82
2023/06/20 10:10:03;;;;;;;9.32;6.88;;;27.10;99.90;;;;;;5042656;28;20036;-82
2023/06/20 10:12:29;;;;;;;7.43;5.65;;;27.20;99.90;;;;;;5039215;28;20086;-82
2023/06/20 10:14:56;;;;;;;8.93;6.28;;;27.20;99.90;;;;;;5045605;28;20052;-81
2023/06/20 10:17:35;;;;;;;6.68;6.00;;;27.00;99.90;;;;;;5044947;28;20700;-82
2023/06/20 10:20:04;;;;;;;7.53;5.80;;;27.10;99.90;;;;;;5045193;28;20076;-81
2023/06/20 10:23:00;;;;;;;10.75;6.40;;;26.70;99.90;;;;;;5042383;28;20045;-81
2023/06/20 10:25:27;;;;;;;6.95;5.10;;;26.60;99.90;;;;;;5041749;28;20057;-83
2023/06/20 10:27:52;;;;;;;5.78;5.28;;;26.90;99.90;;;;;;5044510;28;20037;-81
2023/06/20 10:30:50;;;;;;;5.78;5.25;;;27.10;99.90;;;;;;5044549;28;20045;-82
2023/06/20 10:34:09;;;;;;;5.82;5.32;;;27.10;99.90;;;;;;5045646;28;20037;-84
2023/06/20 10:47:51;;;;;;;7.28;5.10;;;27.40;99.90;;;;;;4985783;28;20182;-83
2023/06/20 11:10:09;;;;;;;23.85;5.97;;;27.50;99.90;;;;;;4903347;29;20062;-85
2023/06/20 11:13:02;;;;;;;5.20;4.80;;;27.60;99.90;;;;;;4918595;29;20055;-84
2023/06/20 11:30:56;;;;;;;5.03;4.40;;;27.80;99.90;;;;;;4973205;28;20104;-83
2023/06/20 11:40:51;;;;;;;4.82;4.45;;;28.00;99.80;;;;;;4973518;28;20080;-82
2023/06/20 11:44:03;;;;;;;8.35;4.70;;;27.80;99.90;;;;;;4976675;28;20047;-82
2023/06/20 11:46:50;;;;;;;6.10;4.75;;;27.60;99.90;;;;;;5042337;28;20043;-81
2023/06/20 11:49:32;;;;;;;5.85;4.70;;;27.80;99.90;;;;;;5038088;28;20029;-82
2023/06/20 11:51:57;;;;;;;5.05;4.53;;;27.90;99.90;;;;;;5042407;28;20037;-81
2023/06/20 11:54:24;;;;;;;5.72;4.70;;;27.90;99.90;;;;;;5042340;28;20055;-79
2023/06/20 11:56:53;;;;;;;6.97;4.65;;;27.90;99.90;;;;;;5040974;28;20041;-81
2023/06/20 11:59:25;;;;;;;9.88;4.57;;;28.00;99.90;;;;;;5041297;28;20091;-79
2023/06/20 12:01:52;;;;;;;4.03;3.72;;;28.10;99.90;;;;;;5039336;28;20486;-81
2023/06/20 12:04:21;;;;;;;6.47;4.28;;;28.40;99.90;;;;;;5043987;28;20793;-81
2023/06/20 12:06:52;;;;;;;4.88;3.63;;;28.40;99.90;;;;;;5039795;28;20037;-81
2023/06/20 12:09:40;;;;;;;3.83;3.40;;;28.50;99.70;;;;;;5039014;28;20037;-81
2023/06/20 12:13:03;;;;;;;5.78;4.70;;;28.50;99.50;;;;;;5043243;28;20044;-81
2023/06/20 12:15:32;;;;;;;5.80;4.53;;;28.80;99.90;;;;;;5039333;28;20044;-80
2023/06/20 12:18:03;;;;;;;8.63;4.47;;;28.90;99.70;;;;;;5029504;28;20048;-80
2023/06/20 12:20:51;;;;;;;5.05;4.43;;;28.60;99.30;;;;;;5043113;28;20037;-83
2023/06/20 12:23:18;;;;;;;8.85;4.95;;;28.30;99.90;;;;;;5027971;28;20128;-82
2023/06/20 12:25:43;;;;;;;4.30;3.95;;;28.20;99.90;;;;;;5041728;28;20041;-81
2023/06/20 12:28:17;;;;;;;4.82;4.18;;;28.10;99.10;;;;;;5040231;28;20041;-82
2023/06/20 12:30:44;;;;;;;4.20;3.80;;;28.20;99.90;;;;;;5040022;28;20044;-81
2023/06/20 12:33:45;;;;;;;4.65;4.03;;;28.30;99.70;;;;;;5026331;28;20041;-82
2023/06/20 12:36:11;;;;;;;4.75;4.25;;;28.40;99.50;;;;;;5025438;28;20029;-81
2023/06/20 12:38:57;;;;;;;7.03;4.78;;;28.40;99.50;;;;;;5040141;28;20099;-81
2023/06/20 12:41:46;;;;;;;5.00;4.50;;;28.60;99.40;;;;;;5042431;28;20106;-81
2023/06/20 12:45:05;;;;;;;10.55;3.97;;;28.40;99.10;;;;;;5045441;28;20037;-82
2023/06/20 12:48:05;;;;;;;5.60;4.97;;;28.80;99.90;;;;;;5003115;28;20057;-83
2023/06/20 12:51:07;;;;;;;6.85;4.45;;;28.80;99.90;;;;;;5023929;28;20146;-82
2023/06/20 12:53:51;;;;;;;6.63;4.35;;;28.40;98.60;;;;;;5022891;28;20040;-83
2023/06/20 12:56:17;;;;;;;4.13;3.83;;;28.20;99.40;;;;;;5043041;28;20087;-84
2023/06/20 12:59:04;;;;;;;4.63;3.70;;;28.20;99.40;;;;;;5028755;28;20033;-82
2023/06/20 13:01:31;;;;;;;7.10;4.10;;;28.30;99.50;;;;;;5040542;28;20045;-81
2023/06/20 13:03:58;;;;;;;4.75;4.35;;;28.50;99.80;;;;;;5041270;28;20138;-81
2023/06/20 13:06:24;;;;;;;5.07;4.47;;;28.40;99.10;;;;;;5059243;28;20130;-81
2023/06/20 13:12:36;;;;;;;4.57;4.03;;;28.10;98.90;;;;;;5043218;28;20211;-82
2023/06/20 13:15:04;;;;;;;4.43;3.95;;;28.00;99.00;;;;;;5042042;28;20368;-80
2023/06/20 13:17:32;;;;;;;3.75;3.45;;;28.10;98.40;;;;;;5041349;28;20041;-81
2023/06/20 13:19:57;;;;;;;7.20;3.60;;;28.10;98.60;;;;;;5043383;28;20044;-82
2023/06/20 13:22:23;;;;;;;6.78;3.35;;;28.10;98.00;;;;;;5041559;28;20028;-81
2023/06/20 13:24:49;;;;;;;3.25;2.83;;;28.20;98.50;;;;;;5040861;28;20065;-80
2023/06/20 13:27:14;;;;;;;3.70;3.40;;;28.30;98.20;;;;;;5040340;28;20459;-81
2023/06/20 13:29:40;;;;;;;3.08;2.50;;;28.40;97.80;;;;;;5048283;28;20114;-81
2023/06/20 13:32:06;;;;;;;4.15;3.28;;;28.40;97.30;;;;;;5045639;28;20044;-81
2023/06/20 13:34:32;;;;;;;5.43;3.10;;;28.70;97.30;;;;;;5047112;28;20407;-81
2023/06/20 13:36:58;;;;;;;4.30;3.90;;;28.90;97.70;;;;;;5045832;28;20060;-81
2023/06/20 13:39:28;;;;;;;4.75;3.72;;;29.10;98.10;;;;;;5043686;28;20106;-81
2023/06/20 13:41:55;;;;;;;6.05;3.50;;;29.10;98.20;;;;;;5046938;28;20051;-81
2023/06/20 13:44:21;;;;;;;5.82;3.20;;;29.10;97.40;;;;;;5046019;28;20041;-81
2023/06/20 13:46:47;;;;;;;6.47;3.50;;;29.00;97.80;;;;;;5046583;28;20454;-83
2023/06/20 13:49:13;;;;;;;3.75;2.80;;;28.70;97.50;;;;;;5047870;28;20040;-80
2023/06/20 13:51:39;;;;;;;3.35;3.05;;;28.80;98.20;;;;;;5050444;28;20129;-81